Disclaimer

Please do not use the information listed here in-flight or in-navigation, as they are not provided to us by the airports but are provided by volunteers, so they might be outdated.

Search


Regions


Airport information page

No radio frequency information is available.

Airport informations:
Latitude: 53° 57' 17.50" N
Longitude: 030° 05' 42.32" E
Elevation: 637 feet - 194 meters
Operating hours: Remarks
Operating agency: Civil government, landing fees and diplomatic clearance may be required
Timezone: UTC+2(+3DT) - Last Sunday in March to last Sunday in October
Fuel: N/A

Runway information:
13/31 - 8422 x 138 feet< - >2567 x 42 meters

Recent METARs:
UMOO 201300Z 36003MPS 9999 OVC020 M00/M02 Q1029 R13/290065 NOSIG
UMOO 201300Z 36003MPS 9999 OVC020 M00/M02 Q1029 R13/290065 NOSIG
UMOO 201300Z 36003MPS 9999 OVC020 M00/M02 Q1029 R13/290065 NOSIG

Airport on the map: